createdAt,value
2022-10-01T00:01:11.653Z,66.11
2022-10-01T00:03:44.300Z,66.11
2022-10-01T00:06:19.204Z,65.94
2022-10-01T00:08:51.155Z,66.15
2022-10-01T00:11:25.233Z,65.89
2022-10-01T00:13:57.552Z,65.89
2022-10-01T00:16:30.700Z,65.85
2022-10-01T00:19:03.135Z,65.75
2022-10-01T00:21:35.319Z,65.64
2022-10-01T00:24:07.469Z,65.54
2022-10-01T00:26:39.499Z,65.51
2022-10-01T00:29:15.034Z,65.72
2022-10-01T00:31:47.108Z,65.75
2022-10-01T00:34:19.152Z,65.53
2022-10-01T00:36:51.343Z,65.37
2022-10-01T00:39:23.874Z,65.66
2022-10-01T00:41:56.280Z,65.85
2022-10-01T00:44:35.217Z,65.78
2022-10-01T00:47:27.050Z,65.69
2022-10-01T00:50:22.596Z,66.08
2022-10-01T00:52:57.594Z,65.74
2022-10-01T00:55:41.662Z,65.69
2022-10-01T00:58:15.021Z,65.59
2022-10-01T01:00:47.733Z,65.79
2022-10-01T01:03:19.735Z,65.61
2022-10-01T01:05:51.697Z,65.61
2022-10-01T01:08:23.916Z,65.68
2022-10-01T01:11:11.124Z,65.92
2022-10-01T01:13:52.919Z,65.79
2022-10-01T01:16:39.210Z,65.66
2022-10-01T01:19:28.865Z,65.99
2022-10-01T01:22:04.366Z,66.00
2022-10-01T01:24:48.404Z,65.88
2022-10-01T01:27:29.854Z,65.99
2022-10-01T01:30:15.095Z,65.62
2022-10-01T01:33:04.731Z,65.99
2022-10-01T01:35:44.144Z,65.95
2022-10-01T01:38:24.411Z,65.78
2022-10-01T01:40:59.119Z,65.69
2022-10-01T01:43:37.106Z,65.93
2022-10-01T01:46:10.621Z,65.88
2022-10-01T01:48:47.557Z,66.03
2022-10-01T01:51:39.698Z,66.21
2022-10-01T01:54:12.248Z,66.08
2022-10-01T01:56:44.190Z,66.01
2022-10-01T01:59:19.519Z,66.09
2022-10-01T02:01:51.648Z,66.21
2022-10-01T02:04:28.956Z,66.39
2022-10-01T02:07:38.358Z,66.57
2022-10-01T02:10:35.777Z,66.63
2022-10-01T02:13:35.103Z,66.85
2022-10-01T02:16:34.987Z,66.94
2022-10-01T02:19:21.544Z,67.19
2022-10-01T02:22:03.772Z,66.99
2022-10-01T02:24:45.905Z,66.95
2022-10-01T02:27:30.235Z,67.24
2022-10-01T02:30:07.859Z,66.76
2022-10-01T02:32:41.675Z,66.90
2022-10-01T02:35:16.163Z,66.78
2022-10-01T02:37:51.370Z,67.07
2022-10-01T02:40:26.336Z,66.93
2022-10-01T02:43:03.830Z,67.18
2022-10-01T02:45:37.905Z,66.98
2022-10-01T02:48:11.371Z,66.78
2022-10-01T02:50:50.043Z,67.09
2022-10-01T02:53:29.084Z,67.05
2022-10-01T02:56:02.552Z,66.92
2022-10-01T02:58:34.949Z,66.88
2022-10-01T03:01:07.385Z,66.93
2022-10-01T03:03:42.028Z,66.94
2022-10-01T03:06:13.867Z,66.81
2022-10-01T03:08:45.774Z,66.83
2022-10-01T03:11:17.712Z,66.87
2022-10-01T03:13:49.972Z,66.76
2022-10-01T03:16:22.111Z,66.82
2022-10-01T03:18:55.251Z,66.67
2022-10-01T03:21:27.370Z,66.82
2022-10-01T03:23:59.574Z,66.63
2022-10-01T03:26:31.531Z,66.73
2022-10-01T03:29:04.716Z,66.92
2022-10-01T03:31:38.274Z,66.60
2022-10-01T03:34:10.627Z,66.51
2022-10-01T03:36:42.624Z,66.33
2022-10-01T03:39:15.621Z,66.62
2022-10-01T03:41:47.866Z,66.53
2022-10-01T03:44:19.666Z,66.70
2022-10-01T03:46:51.952Z,66.61
2022-10-01T03:49:23.985Z,66.71
2022-10-01T03:51:55.869Z,66.53
2022-10-01T03:54:28.028Z,66.67
2022-10-01T03:56:59.893Z,66.93
2022-10-01T03:59:32.012Z,66.92
2022-10-01T04:02:04.098Z,66.94
2022-10-01T04:04:36.395Z,67.48
2022-10-01T04:07:08.477Z,67.50
2022-10-01T04:09:40.655Z,68.03
2022-10-01T04:12:12.741Z,68.25
2022-10-01T04:14:44.606Z,68.51
2022-10-01T04:17:16.537Z,68.71
2022-10-01T04:19:48.662Z,68.95
2022-10-01T04:22:20.946Z,69.25
2022-10-01T04:24:53.811Z,69.43
2022-10-01T04:27:26.305Z,69.65
2022-10-01T04:29:58.390Z,69.83
2022-10-01T04:32:30.266Z,69.99
2022-10-01T04:35:04.361Z,70.25
2022-10-01T04:37:36.392Z,70.65
2022-10-01T04:40:10.840Z,70.78
2022-10-01T04:42:43.868Z,71.08
2022-10-01T04:45:15.823Z,71.29
2022-10-01T04:47:52.288Z,72.30
2022-10-01T04:50:25.907Z,72.24
2022-10-01T04:52:58.251Z,72.01
2022-10-01T04:55:30.292Z,72.37
2022-10-01T04:58:02.944Z,72.73
2022-10-01T05:00:34.868Z,72.95
2022-10-01T05:03:08.114Z,73.38
2022-10-01T05:05:40.883Z,73.22
2022-10-01T05:08:12.899Z,73.77
2022-10-01T05:10:44.914Z,73.77
2022-10-01T05:13:17.105Z,74.10
2022-10-01T05:15:52.179Z,74.33
2022-10-01T05:18:24.500Z,74.78
2022-10-01T05:20:56.362Z,75.18
2022-10-01T05:23:28.234Z,75.31
2022-10-01T05:26:00.814Z,75.48
2022-10-01T05:28:33.079Z,75.80
2022-10-01T05:31:05.220Z,76.32
2022-10-01T05:33:37.976Z,76.01
2022-10-01T05:36:09.936Z,76.34
2022-10-01T05:38:42.355Z,77.33
2022-10-01T05:41:14.544Z,77.11
2022-10-01T05:43:48.762Z,77.61
2022-10-01T05:46:20.704Z,77.76
2022-10-01T05:48:52.777Z,77.93
2022-10-01T05:51:25.291Z,78.28
2022-10-01T05:53:59.090Z,78.34
2022-10-01T05:56:31.153Z,78.34
2022-10-01T05:59:03.598Z,78.83
2022-10-01T06:01:35.827Z,79.00
2022-10-01T06:04:10.843Z,79.29
2022-10-01T06:06:42.794Z,79.31
2022-10-01T06:09:15.597Z,79.94
2022-10-01T06:11:48.972Z,79.98
2022-10-01T06:14:22.662Z,80.23
2022-10-01T06:16:54.968Z,80.40
2022-10-01T06:19:27.072Z,80.64
2022-10-01T06:21:59.129Z,80.90
2022-10-01T06:24:31.744Z,81.07
2022-10-01T06:27:03.889Z,81.59
2022-10-01T06:29:36.063Z,81.59
2022-10-01T06:32:10.777Z,81.71
2022-10-01T06:34:42.783Z,82.12
2022-10-01T06:37:14.758Z,82.28
2022-10-01T06:39:46.636Z,82.47
2022-10-01T06:42:18.624Z,82.78
2022-10-01T06:44:50.463Z,82.75
2022-10-01T06:47:22.468Z,83.04
2022-10-01T06:49:54.289Z,83.24
2022-10-01T06:52:44.842Z,83.16
2022-10-01T06:55:17.200Z,83.16
2022-10-01T06:57:58.458Z,84.16
2022-10-01T07:00:31.926Z,83.78
2022-10-01T07:03:14.262Z,85.11
2022-10-01T07:05:46.582Z,84.19
2022-10-01T07:08:18.602Z,84.22
2022-10-01T07:10:50.544Z,84.33
2022-10-01T07:13:22.778Z,84.44
2022-10-01T07:15:54.650Z,84.84
2022-10-01T07:18:27.029Z,85.65
2022-10-01T07:20:59.077Z,85.83
2022-10-01T07:23:31.114Z,86.06
2022-10-01T07:26:08.821Z,87.20
2022-10-01T07:28:40.998Z,87.26
2022-10-01T07:31:13.038Z,87.75
2022-10-01T07:33:45.191Z,88.04
2022-10-01T07:36:17.132Z,88.19
2022-10-01T07:38:50.781Z,88.72
2022-10-01T07:41:22.727Z,89.02
2022-10-01T07:43:54.998Z,89.48
2022-10-01T07:46:28.054Z,89.77
2022-10-01T07:49:02.293Z,90.02
2022-10-01T07:51:34.646Z,90.48
2022-10-01T07:54:06.759Z,90.87
2022-10-01T07:56:38.672Z,91.32
2022-10-01T07:59:11.166Z,91.62
2022-10-01T08:01:43.199Z,92.00
2022-10-01T08:04:34.038Z,92.35
2022-10-01T08:07:08.029Z,92.72
2022-10-01T08:09:40.180Z,92.85
2022-10-01T08:12:12.178Z,93.39
2022-10-01T08:14:44.145Z,93.52
2022-10-01T08:17:16.021Z,93.98
2022-10-01T08:19:48.025Z,94.56
2022-10-01T08:22:20.730Z,94.75
2022-10-01T08:24:52.720Z,95.21
2022-10-01T08:27:25.616Z,96.02
2022-10-01T08:29:57.758Z,96.08
2022-10-01T08:32:31.285Z,96.44
2022-10-01T08:35:05.069Z,96.74
2022-10-01T08:37:37.132Z,97.13
2022-10-01T08:40:09.601Z,97.34
2022-10-01T08:42:49.000Z,97.16
2022-10-01T08:45:27.740Z,97.98
2022-10-01T08:48:05.215Z,98.34
2022-10-01T08:50:55.833Z,98.59
2022-10-01T08:53:50.295Z,98.87
2022-10-01T08:56:25.591Z,98.83
2022-10-01T08:58:59.573Z,98.91
2022-10-01T09:01:31.637Z,99.12
2022-10-01T09:04:05.045Z,99.38
2022-10-01T09:06:38.485Z,98.77
2022-10-01T09:09:32.953Z,99.01
2022-10-01T09:12:42.793Z,99.00
2022-10-01T09:15:21.995Z,99.53
2022-10-01T09:18:15.929Z,99.73
2022-10-01T09:20:53.820Z,100.00
2022-10-01T09:23:59.903Z,100.00
2022-10-01T09:26:32.183Z,100.00
2022-10-01T09:29:11.426Z,100.00
2022-10-01T09:31:47.279Z,100.00
2022-10-01T09:34:32.988Z,100.00
2022-10-01T09:37:07.622Z,100.00
2022-10-01T09:39:48.534Z,100.00
2022-10-01T09:42:25.504Z,100.00
2022-10-01T09:44:58.092Z,100.00
2022-10-01T09:47:32.911Z,100.00
2022-10-01T09:50:06.558Z,100.00
2022-10-01T09:52:39.903Z,100.00
2022-10-01T09:55:20.771Z,100.00
2022-10-01T09:57:58.889Z,100.00
2022-10-01T10:00:30.927Z,100.00
2022-10-01T10:03:02.892Z,100.00
2022-10-01T10:05:43.895Z,100.00
2022-10-01T10:08:28.803Z,100.00
2022-10-01T10:11:02.387Z,100.00
2022-10-01T10:13:41.932Z,100.00
2022-10-01T10:16:26.721Z,100.00
2022-10-01T10:19:04.679Z,100.00
2022-10-01T10:21:37.806Z,100.00
2022-10-01T10:24:23.889Z,100.00
2022-10-01T10:26:58.530Z,100.00
2022-10-01T10:29:32.857Z,100.00
2022-10-01T10:32:13.662Z,100.00
2022-10-01T10:34:48.685Z,100.00
2022-10-01T10:37:27.514Z,100.00
2022-10-01T10:39:59.381Z,100.00
2022-10-01T10:42:33.281Z,100.00
2022-10-01T10:45:15.648Z,100.00
2022-10-01T10:47:50.296Z,100.00
2022-10-01T10:50:30.069Z,100.00
2022-10-01T10:53:19.880Z,97.09
2022-10-01T10:56:01.814Z,99.22
2022-10-01T10:58:40.228Z,98.94
2022-10-01T11:01:17.444Z,99.65
2022-10-01T11:03:53.366Z,98.93
2022-10-01T11:06:25.802Z,99.54
2022-10-01T11:09:00.767Z,97.97
2022-10-01T11:12:25.075Z,93.00
2022-10-01T11:15:21.762Z,95.76
2022-10-01T11:18:11.524Z,97.65
2022-10-01T11:21:00.256Z,90.58
2022-10-01T11:23:53.551Z,92.71
2022-10-01T11:26:34.213Z,92.14
2022-10-01T11:29:21.318Z,90.37
2022-10-01T11:32:03.311Z,91.78
2022-10-01T11:34:49.598Z,91.04
2022-10-01T11:37:32.874Z,88.49
2022-10-01T11:40:15.301Z,89.88
2022-10-01T11:42:47.892Z,91.19
2022-10-01T11:45:24.394Z,89.87
2022-10-01T11:48:00.741Z,88.84
2022-10-01T11:50:39.204Z,89.21
2022-10-01T11:53:19.352Z,88.32
2022-10-01T11:56:19.235Z,87.07
2022-10-01T11:58:54.752Z,85.07
2022-10-01T12:01:46.338Z,84.25
2022-10-01T12:04:40.480Z,82.02
2022-10-01T12:07:16.352Z,83.78
2022-10-01T12:09:58.701Z,76.21
2022-10-01T12:12:37.015Z,80.18
2022-10-01T12:15:14.276Z,72.88
2022-10-01T12:18:06.528Z,72.31
2022-10-01T12:20:43.795Z,67.53
2022-10-01T12:23:26.785Z,63.53
2022-10-01T12:26:12.452Z,61.59
2022-10-01T12:29:00.183Z,60.25
2022-10-01T12:31:38.141Z,63.39
2022-10-01T12:34:15.921Z,64.99
2022-10-01T12:37:10.417Z,63.50
2022-10-01T12:40:07.040Z,60.24
2022-10-01T12:43:01.965Z,63.85
2022-10-01T12:45:45.385Z,62.30
2022-10-01T12:48:44.913Z,64.27
2022-10-01T12:51:43.157Z,66.01
2022-10-01T12:54:31.103Z,64.55
2022-10-01T12:57:07.828Z,65.74
2022-10-01T12:59:50.738Z,65.61
2022-10-01T13:02:52.014Z,65.41
2022-10-01T13:05:53.233Z,66.32
2022-10-01T13:08:33.855Z,67.23
2022-10-01T13:11:43.858Z,67.31
2022-10-01T13:14:18.315Z,68.63
2022-10-01T13:17:00.254Z,70.01
2022-10-01T13:19:53.301Z,70.41
2022-10-01T13:22:35.204Z,72.67
2022-10-01T13:25:25.387Z,76.62
2022-10-01T13:28:12.107Z,76.60
2022-10-01T13:31:00.138Z,81.55
2022-10-01T13:33:33.119Z,81.18
2022-10-01T13:36:06.828Z,83.00
2022-10-01T13:38:38.576Z,85.23
2022-10-01T13:41:23.263Z,87.56
2022-10-01T13:44:11.583Z,89.57
2022-10-01T13:46:52.962Z,90.77
2022-10-01T13:49:30.066Z,91.34
2022-10-01T13:52:03.013Z,91.87
2022-10-01T13:54:47.368Z,96.19
2022-10-01T13:57:31.576Z,94.88
2022-10-01T14:00:12.496Z,95.10
2022-10-01T14:03:04.479Z,95.75
2022-10-01T14:05:38.231Z,96.12
2022-10-01T14:08:16.557Z,96.92
2022-10-01T14:11:12.806Z,97.79
2022-10-01T14:14:06.039Z,98.59
2022-10-01T14:16:49.396Z,99.08
2022-10-01T14:19:24.447Z,99.70
2022-10-01T14:22:14.580Z,99.38
2022-10-01T14:24:55.088Z,99.68
2022-10-01T14:27:47.529Z,100.00
2022-10-01T14:30:29.620Z,100.00
2022-10-01T14:33:16.711Z,100.00
2022-10-01T14:35:54.878Z,100.00
2022-10-01T14:38:26.883Z,100.00
2022-10-01T14:40:59.190Z,100.00
2022-10-01T14:43:32.623Z,100.00
2022-10-01T14:46:06.611Z,100.00
2022-10-01T14:48:40.303Z,100.00
2022-10-01T14:51:27.541Z,98.75
2022-10-01T14:54:00.145Z,100.00
2022-10-01T14:56:32.896Z,100.00
2022-10-01T14:59:07.193Z,100.00
2022-10-01T15:01:39.103Z,100.00
2022-10-01T15:04:16.630Z,99.41
2022-10-01T15:06:48.689Z,100.00
2022-10-01T15:09:20.706Z,100.00
2022-10-01T15:11:52.831Z,100.00
2022-10-01T15:14:24.934Z,100.00
2022-10-01T15:16:56.927Z,100.00
2022-10-01T15:19:29.048Z,100.00
2022-10-01T15:22:01.916Z,100.00
2022-10-01T15:24:49.020Z,98.90
2022-10-01T15:27:21.373Z,100.00
2022-10-01T15:29:56.803Z,100.00
2022-10-01T15:32:29.116Z,100.00
2022-10-01T15:35:01.682Z,100.00
2022-10-01T15:37:35.544Z,100.00
2022-10-01T15:40:21.545Z,99.58
2022-10-01T15:43:13.187Z,99.12
2022-10-01T15:45:47.295Z,100.00
2022-10-01T15:48:28.797Z,100.00
2022-10-01T15:51:27.465Z,99.31
2022-10-01T15:54:05.810Z,100.00
2022-10-01T15:56:37.671Z,100.00
2022-10-01T15:59:17.061Z,100.00
2022-10-01T16:01:48.986Z,100.00
2022-10-01T16:04:21.182Z,100.00
2022-10-01T16:06:53.275Z,100.00
2022-10-01T16:09:30.881Z,100.00
2022-10-01T16:12:06.841Z,100.00
2022-10-01T16:14:44.228Z,100.00
2022-10-01T16:17:18.850Z,100.00
2022-10-01T16:19:52.872Z,100.00
2022-10-01T16:22:28.962Z,100.00
2022-10-01T16:25:10.003Z,100.00
2022-10-01T16:27:57.274Z,100.00
2022-10-01T16:30:29.931Z,100.00
2022-10-01T16:33:04.466Z,100.00
2022-10-01T16:35:37.996Z,100.00
2022-10-01T16:38:11.229Z,100.00
2022-10-01T16:40:45.216Z,100.00
2022-10-01T16:43:20.225Z,100.00
2022-10-01T16:45:52.203Z,100.00
2022-10-01T16:48:24.224Z,100.00
2022-10-01T16:50:59.117Z,100.00
2022-10-01T16:53:31.060Z,100.00
2022-10-01T16:56:03.140Z,100.00
2022-10-01T16:58:35.054Z,100.00
2022-10-01T17:01:08.729Z,100.00
2022-10-01T17:03:41.172Z,100.00
2022-10-01T17:06:13.126Z,100.00
2022-10-01T17:08:44.898Z,100.00
2022-10-01T17:11:16.820Z,100.00
2022-10-01T17:13:48.682Z,100.00
2022-10-01T17:16:24.515Z,100.00
2022-10-01T17:18:56.758Z,100.00
2022-10-01T17:21:29.481Z,100.00
2022-10-01T17:24:03.044Z,100.00
2022-10-01T17:26:35.827Z,100.00
2022-10-01T17:29:11.319Z,100.00
2022-10-01T17:31:50.543Z,100.00
2022-10-01T17:34:22.646Z,100.00
2022-10-01T17:36:54.684Z,100.00
2022-10-01T17:39:26.738Z,100.00
2022-10-01T17:41:58.669Z,100.00
2022-10-01T17:44:30.694Z,100.00
2022-10-01T17:47:04.192Z,100.00
2022-10-01T17:49:36.128Z,100.00
2022-10-01T17:52:07.931Z,100.00
2022-10-01T17:54:40.478Z,100.00
2022-10-01T17:57:12.555Z,100.00
2022-10-01T17:59:44.824Z,100.00
2022-10-01T18:02:39.779Z,100.00
2022-10-01T18:05:09.652Z,100.00
2022-10-01T18:07:42.466Z,100.00
2022-10-01T18:10:14.624Z,100.00
2022-10-01T18:12:46.655Z,100.00
2022-10-01T18:15:20.738Z,100.00
2022-10-01T18:18:48.487Z,100.00
2022-10-01T18:20:46.137Z,100.00
2022-10-01T18:23:18.124Z,100.00
2022-10-01T18:25:50.165Z,100.00
2022-10-01T18:28:22.912Z,100.00
2022-10-01T18:31:16.421Z,97.71
2022-10-01T18:33:51.711Z,99.43
2022-10-01T18:36:26.630Z,99.61
2022-10-01T18:39:37.444Z,96.70
2022-10-01T18:42:23.606Z,98.60
2022-10-01T18:44:57.933Z,98.31
2022-10-01T18:47:40.799Z,97.94
2022-10-01T18:50:47.125Z,97.22
2022-10-01T18:53:21.617Z,98.34
2022-10-01T18:55:55.959Z,98.05
2022-10-01T18:58:33.616Z,97.83
2022-10-01T19:01:19.742Z,96.90
2022-10-01T19:03:54.253Z,97.68
2022-10-01T19:06:47.966Z,95.99
2022-10-01T19:09:38.112Z,95.96
2022-10-01T19:12:12.915Z,98.56
2022-10-01T19:15:01.025Z,96.69
2022-10-01T19:17:46.473Z,96.70
2022-10-01T19:20:30.303Z,97.67
2022-10-01T19:23:20.922Z,98.02
2022-10-01T19:26:12.238Z,96.31
2022-10-01T19:29:02.186Z,96.79
2022-10-01T19:31:49.598Z,96.76
2022-10-01T19:34:28.518Z,97.33
2022-10-01T19:37:05.485Z,97.47
2022-10-01T19:39:39.399Z,97.54
2022-10-01T19:42:22.301Z,97.54
2022-10-01T19:45:04.474Z,97.87
2022-10-01T19:47:41.262Z,97.21
2022-10-01T19:50:24.163Z,96.92
2022-10-01T19:52:58.377Z,97.38
2022-10-01T19:55:38.416Z,96.66
2022-10-01T19:58:19.793Z,97.38
2022-10-01T20:00:56.037Z,96.92
2022-10-01T20:03:38.731Z,97.54
2022-10-01T20:06:21.570Z,96.87
2022-10-01T20:09:00.672Z,96.36
2022-10-01T20:11:36.332Z,96.86
2022-10-01T20:15:04.374Z,94.85
2022-10-01T20:17:49.206Z,96.33
2022-10-01T20:20:24.723Z,96.59
2022-10-01T20:23:19.401Z,95.18
2022-10-01T20:26:10.405Z,95.74
2022-10-01T20:29:04.294Z,94.87
2022-10-01T20:31:48.195Z,95.27
2022-10-01T20:34:32.598Z,95.33
2022-10-01T20:37:18.295Z,95.34
2022-10-01T20:40:24.793Z,94.42
2022-10-01T20:43:12.867Z,95.67
2022-10-01T20:45:46.468Z,95.95
2022-10-01T20:48:25.794Z,96.24
2022-10-01T20:51:03.778Z,95.96
2022-10-01T20:53:53.252Z,94.43
2022-10-01T20:56:35.322Z,94.81
2022-10-01T20:59:17.645Z,95.60
2022-10-01T21:02:18.969Z,94.41
2022-10-01T21:04:54.305Z,95.46
2022-10-01T21:07:37.905Z,94.23
2022-10-01T21:10:33.862Z,94.84
2022-10-01T21:13:11.747Z,95.23
2022-10-01T21:16:12.138Z,94.90
2022-10-01T21:19:05.271Z,94.79
2022-10-01T21:21:53.338Z,94.76
2022-10-01T21:24:51.345Z,93.93
2022-10-01T21:28:00.359Z,94.39
2022-10-01T21:30:40.085Z,94.73
2022-10-01T21:33:14.678Z,95.69
2022-10-01T21:36:03.209Z,95.20
2022-10-01T21:38:47.130Z,94.74
2022-10-01T21:41:43.533Z,94.52
2022-10-01T21:44:53.144Z,94.46
2022-10-01T21:47:47.338Z,94.83
2022-10-01T21:50:48.129Z,94.79
2022-10-01T21:53:43.998Z,95.17
2022-10-01T21:56:38.396Z,95.10
2022-10-01T21:59:22.937Z,95.58
2022-10-01T22:02:22.481Z,96.16
2022-10-01T22:05:08.622Z,96.50
2022-10-01T22:07:48.683Z,96.59
2022-10-01T22:10:28.034Z,96.78
2022-10-01T22:13:03.449Z,96.79
2022-10-01T22:15:42.201Z,96.55
2022-10-01T22:18:24.509Z,96.70
2022-10-01T22:20:59.533Z,96.38
2022-10-01T22:23:33.736Z,96.37
2022-10-01T22:26:12.022Z,96.82
2022-10-01T22:28:51.118Z,96.52
2022-10-01T22:31:27.174Z,97.11
2022-10-01T22:34:06.400Z,98.06
2022-10-01T22:36:58.424Z,98.98
2022-10-01T22:39:37.503Z,99.77
2022-10-01T22:42:14.312Z,100.00
2022-10-01T22:44:48.050Z,100.00
2022-10-01T22:47:38.390Z,100.00
2022-10-01T22:50:20.117Z,100.00
2022-10-01T22:53:20.854Z,100.00
2022-10-01T22:55:55.030Z,100.00
2022-10-01T22:58:52.423Z,100.00
2022-10-01T23:02:00.328Z,100.00
2022-10-01T23:04:51.252Z,100.00
2022-10-01T23:07:50.064Z,100.00
2022-10-01T23:10:33.630Z,100.00
2022-10-01T23:13:20.757Z,100.00
2022-10-01T23:16:14.732Z,100.00
2022-10-01T23:19:03.391Z,100.00
2022-10-01T23:22:04.689Z,100.00
2022-10-01T23:24:36.493Z,100.00
2022-10-01T23:27:23.738Z,100.00
2022-10-01T23:30:16.883Z,100.00
2022-10-01T23:33:21.787Z,100.00
2022-10-01T23:36:16.197Z,100.00
2022-10-01T23:39:27.339Z,100.00
2022-10-01T23:42:17.696Z,100.00
2022-10-01T23:45:02.254Z,100.00
2022-10-01T23:47:41.938Z,100.00
2022-10-01T23:50:25.334Z,100.00
2022-10-01T23:53:10.438Z,100.00
2022-10-01T23:56:04.947Z,100.00
2022-10-01T23:58:47.270Z,100.00
